HAZ272 RCTP-RJCC
Flight info
| Callsign | HAZ272 |
|---|---|
| Flight time | N/A |
| Altitude | 39000 |
| Route | MOLKA1A MOLKA M750 MOMPA Y451 HKC Y45 MARCO Y141 SAMON Y14 GOLDO Y19 MRE Y13 SIRAO Y139 NAVER |
| Aircraft | B772/H-SDE2E3FGHIJ5LORVWXY/LB1D1 |
Departure
| Time | N/A |
|---|---|
| Airport | Taiwan Taoyuan International Airport (RCTP) |
Arrival
| Time | 2026-02-18 20:13 |
|---|---|
| Airport | New Chitose Airport (RJCC) |
| Time | Latitude | Longitude | Altitude | Speed | Heading |
|---|---|---|---|---|---|
| 2026-02-18 19:45 | 40.50171 | 140.49126 | 38147 ft | 497 kts | 27° |
| 2026-02-18 19:45 | 40.53030 | 140.51697 | 37983 ft | 496 kts | 27° |
| 2026-02-18 19:46 | 40.58684 | 140.56795 | 37850 ft | 488 kts | 28° |
| 2026-02-18 19:46 | 40.61463 | 140.59302 | 37629 ft | 490 kts | 27° |
| 2026-02-18 19:46 | 40.64326 | 140.61887 | 37431 ft | 490 kts | 28° |
| 2026-02-18 19:47 | 40.67138 | 140.64429 | 37322 ft | 488 kts | 27° |
| 2026-02-18 19:47 | 40.69958 | 140.66981 | 37201 ft | 486 kts | 28° |
| 2026-02-18 19:47 | 40.72786 | 140.69472 | 36984 ft | 483 kts | 24° |
| 2026-02-18 19:47 | 40.75869 | 140.71492 | 36760 ft | 475 kts | 15° |
| 2026-02-18 19:48 | 40.78952 | 140.73039 | 36625 ft | 472 kts | 14° |
| 2026-02-18 19:48 | 40.82094 | 140.74570 | 36218 ft | 468 kts | 13° |
| 2026-02-18 19:48 | 40.85188 | 140.76074 | 35346 ft | 474 kts | 13° |
| 2026-02-18 19:48 | 40.88470 | 140.77672 | 34430 ft | 477 kts | 14° |
| 2026-02-18 19:49 | 40.95442 | 140.81108 | 33335 ft | 467 kts | 13° |
| 2026-02-18 19:49 | 40.98828 | 140.82785 | 32737 ft | 464 kts | 13° |
| 2026-02-18 19:49 | 41.02093 | 140.84402 | 32153 ft | 461 kts | 13° |
| 2026-02-18 19:50 | 41.05252 | 140.85968 | 31509 ft | 458 kts | 13° |
| 2026-02-18 19:50 | 41.08289 | 140.87477 | 30938 ft | 455 kts | 13° |
| 2026-02-18 19:50 | 41.11296 | 140.88971 | 30308 ft | 451 kts | 13° |
| 2026-02-18 19:50 | 41.14280 | 140.90457 | 29714 ft | 446 kts | 13° |
| 2026-02-18 19:51 | 41.17246 | 140.91934 | 29175 ft | 440 kts | 13° |
| 2026-02-18 19:51 | 41.20114 | 140.93365 | 28639 ft | 434 kts | 13° |
| 2026-02-18 19:51 | 41.23019 | 140.94815 | 28141 ft | 428 kts | 13° |
| 2026-02-18 19:51 | 41.25807 | 140.96208 | 27638 ft | 422 kts | 13° |
| 2026-02-18 19:52 | 41.28565 | 140.97586 | 27065 ft | 416 kts | 13° |
| 2026-02-18 19:52 | 41.31240 | 140.98926 | 26588 ft | 409 kts | 13° |
| 2026-02-18 19:52 | 41.33916 | 141.00246 | 26092 ft | 403 kts | 13° |
| 2026-02-18 19:52 | 41.36620 | 141.01572 | 25593 ft | 397 kts | 12° |
| 2026-02-18 19:53 | 41.42022 | 141.04227 | 24623 ft | 385 kts | 13° |
| 2026-02-18 19:53 | 41.44638 | 141.05513 | 24133 ft | 380 kts | 13° |
| 2026-02-18 19:53 | 41.47366 | 141.06857 | 23597 ft | 375 kts | 13° |
| 2026-02-18 19:54 | 41.50105 | 141.08208 | 23085 ft | 370 kts | 13° |
| 2026-02-18 19:54 | 41.52834 | 141.09554 | 22520 ft | 365 kts | 13° |
| 2026-02-18 19:54 | 41.55448 | 141.10846 | 22019 ft | 361 kts | 14° |
| 2026-02-18 19:54 | 41.58047 | 141.12131 | 21519 ft | 357 kts | 14° |
| 2026-02-18 19:55 | 41.60625 | 141.13408 | 20950 ft | 353 kts | 14° |
| 2026-02-18 19:55 | 41.63242 | 141.14705 | 20440 ft | 349 kts | 14° |
| 2026-02-18 19:55 | 41.65866 | 141.16007 | 19935 ft | 345 kts | 15° |
| 2026-02-18 19:55 | 41.68514 | 141.17320 | 19395 ft | 342 kts | 15° |
| 2026-02-18 19:56 | 41.71095 | 141.18617 | 18864 ft | 339 kts | 16° |
| 2026-02-18 19:56 | 41.73653 | 141.19913 | 18326 ft | 335 kts | 16° |
| 2026-02-18 19:56 | 41.76202 | 141.21205 | 17796 ft | 331 kts | 17° |
| 2026-02-18 19:56 | 41.78640 | 141.22440 | 17282 ft | 327 kts | 17° |
| 2026-02-18 19:57 | 41.83520 | 141.24913 | 16292 ft | 320 kts | 17° |
| 2026-02-18 19:57 | 41.85879 | 141.26109 | 15811 ft | 316 kts | 17° |
| 2026-02-18 19:57 | 41.88238 | 141.27307 | 15321 ft | 312 kts | 17° |
| 2026-02-18 19:58 | 41.90575 | 141.28496 | 14845 ft | 309 kts | 17° |
| 2026-02-18 19:58 | 41.92884 | 141.29668 | 14368 ft | 318 kts | 17° |
| 2026-02-18 19:58 | 41.95217 | 141.30862 | 13865 ft | 318 kts | 18° |
| 2026-02-18 19:58 | 41.97382 | 141.32648 | 13370 ft | 321 kts | 35° |
| 2026-02-18 19:59 | 41.99265 | 141.34959 | 12879 ft | 322 kts | 38° |
| 2026-02-18 19:59 | 42.01116 | 141.37328 | 12382 ft | 322 kts | 38° |
| 2026-02-18 19:59 | 42.02879 | 141.39592 | 11917 ft | 318 kts | 38° |
| 2026-02-18 20:00 | 42.06304 | 141.43994 | 11153 ft | 306 kts | 38° |
| 2026-02-18 20:00 | 42.07922 | 141.46072 | 10721 ft | 304 kts | 38° |
| 2026-02-18 20:00 | 42.09594 | 141.48222 | 10385 ft | 297 kts | 38° |
| 2026-02-18 20:00 | 42.11157 | 141.50240 | 10316 ft | 283 kts | 38° |
| 2026-02-18 20:01 | 42.14545 | 141.53355 | 10115 ft | 249 kts | 17° |
| 2026-02-18 20:01 | 42.16272 | 141.54329 | 10012 ft | 239 kts | 17° |
| 2026-02-18 20:01 | 42.17940 | 141.55244 | 9721 ft | 252 kts | 17° |
| 2026-02-18 20:02 | 42.19619 | 141.56171 | 9383 ft | 252 kts | 16° |
| 2026-02-18 20:02 | 42.21437 | 141.57173 | 9049 ft | 250 kts | 16° |
| 2026-02-18 20:02 | 42.23260 | 141.58180 | 8724 ft | 247 kts | 16° |
| 2026-02-18 20:02 | 42.25028 | 141.59155 | 8410 ft | 245 kts | 16° |
| 2026-02-18 20:03 | 42.26762 | 141.60113 | 8111 ft | 243 kts | 15° |
| 2026-02-18 20:03 | 42.28500 | 141.61073 | 7812 ft | 241 kts | 15° |
| 2026-02-18 20:03 | 42.30226 | 141.62028 | 7524 ft | 239 kts | 15° |
| 2026-02-18 20:03 | 42.31949 | 141.62982 | 7219 ft | 237 kts | 14° |
| 2026-02-18 20:04 | 42.33640 | 141.63917 | 6919 ft | 235 kts | 14° |
| 2026-02-18 20:04 | 42.35361 | 141.64871 | 6614 ft | 233 kts | 14° |
| 2026-02-18 20:04 | 42.36955 | 141.65753 | 6325 ft | 231 kts | 16° |
| 2026-02-18 20:05 | 42.42096 | 141.68607 | 5431 ft | 227 kts | 14° |
| 2026-02-18 20:05 | 42.43791 | 141.69550 | 5205 ft | 222 kts | 14° |
| 2026-02-18 20:05 | 42.45396 | 141.70445 | 5158 ft | 210 kts | 14° |
| 2026-02-18 20:06 | 42.46939 | 141.71303 | 5101 ft | 200 kts | 13° |
| 2026-02-18 20:06 | 42.48397 | 141.72115 | 5022 ft | 190 kts | 13° |
| 2026-02-18 20:06 | 42.49738 | 141.72861 | 4952 ft | 184 kts | 12° |
| 2026-02-18 20:06 | 42.51119 | 141.73616 | 4897 ft | 183 kts | 9° |
| 2026-02-18 20:07 | 42.52505 | 141.73848 | 4760 ft | 173 kts | 349° |
| 2026-02-18 20:07 | 42.53871 | 141.73575 | 4427 ft | 167 kts | 346° |
| 2026-02-18 20:07 | 42.55086 | 141.73340 | 4163 ft | 154 kts | 345° |
| 2026-02-18 20:07 | 42.56256 | 141.73128 | 3937 ft | 152 kts | 345° |
| 2026-02-18 20:08 | 42.57465 | 141.72917 | 3704 ft | 149 kts | 345° |
| 2026-02-18 20:08 | 42.58644 | 141.72714 | 3479 ft | 147 kts | 345° |
| 2026-02-18 20:08 | 42.59803 | 141.72513 | 3260 ft | 149 kts | 345° |
| 2026-02-18 20:08 | 42.60849 | 141.72330 | 3057 ft | 147 kts | 345° |
| 2026-02-18 20:09 | 42.62903 | 141.71970 | 2666 ft | 148 kts | 346° |
| 2026-02-18 20:09 | 42.63935 | 141.71791 | 2462 ft | 149 kts | 346° |
| 2026-02-18 20:09 | 42.65005 | 141.71606 | 2256 ft | 148 kts | 346° |
| 2026-02-18 20:10 | 42.66079 | 141.71419 | 2049 ft | 143 kts | 346° |
| 2026-02-18 20:10 | 42.67154 | 141.71230 | 1965 ft | 143 kts | 346° |
| 2026-02-18 20:10 | 42.68225 | 141.71042 | 1745 ft | 140 kts | 346° |
| 2026-02-18 20:10 | 42.69284 | 141.70857 | 1529 ft | 130 kts | 346° |
| 2026-02-18 20:11 | 42.70276 | 141.70682 | 1335 ft | 123 kts | 347° |
| 2026-02-18 20:11 | 42.71242 | 141.70514 | 1148 ft | 123 kts | 347° |
| 2026-02-18 20:11 | 42.72172 | 141.70349 | 959 ft | 119 kts | 348° |
| 2026-02-18 20:11 | 42.73139 | 141.70183 | 772 ft | 122 kts | 348° |
| 2026-02-18 20:12 | 42.74059 | 141.70016 | 567 ft | 126 kts | 348° |
| 2026-02-18 20:12 | 42.74933 | 141.69864 | 380 ft | 128 kts | 351° |
| 2026-02-18 20:12 | 42.75819 | 141.69711 | 207 ft | 127 kts | 351° |
| 2026-02-18 20:12 | 42.76688 | 141.69563 | 99 ft | 116 kts | 350° |
| 2026-02-18 20:13 | 42.77696 | 141.69363 | 98 ft | 36 kts | 337° |
| 2026-02-18 20:13 | 42.77895 | 141.69199 | 98 ft | 31 kts | 322° |
| 2026-02-18 20:13 | 42.78066 | 141.69022 | 98 ft | 30 kts | 323° |
| 2026-02-18 20:14 | 42.78234 | 141.68848 | 98 ft | 30 kts | 322° |
| 2026-02-18 20:14 | 42.78381 | 141.68695 | 98 ft | 19 kts | 323° |
| 2026-02-18 20:14 | 42.78416 | 141.68507 | 98 ft | 20 kts | 289° |
| 2026-02-18 20:14 | 42.78490 | 141.68353 | 98 ft | 13 kts | 318° |
| 2026-02-18 20:15 | 42.78596 | 141.68372 | 98 ft | 15 kts | 25° |
| 2026-02-18 20:15 | 42.78657 | 141.68320 | 98 ft | 7 kts | 287° |
| 2026-02-18 20:15 | 42.78664 | 141.68280 | 98 ft | 2 kts | 284° |
| 2026-02-18 20:15 | 42.78666 | 141.68271 | 98 ft | 0 kts | 284° |